sensor_id;sensor_type;location;lat;lon;timestamp;temperature;humidity
52481;DHT22;38393;52.404;13.532;2023-04-03T00:01:00;1.30;86.10
52481;DHT22;38393;52.404;13.532;2023-04-03T00:03:26;1.30;86.30
52481;DHT22;38393;52.404;13.532;2023-04-03T00:05:51;1.30;85.70
52481;DHT22;38393;52.404;13.532;2023-04-03T00:08:17;1.50;85.90
52481;DHT22;38393;52.404;13.532;2023-04-03T00:10:42;1.20;85.90
52481;DHT22;38393;52.404;13.532;2023-04-03T00:13:08;1.20;86.60
52481;DHT22;38393;52.404;13.532;2023-04-03T00:15:34;1.20;86.20
52481;DHT22;38393;52.404;13.532;2023-04-03T00:18:00;1.20;86.10
52481;DHT22;38393;52.404;13.532;2023-04-03T00:20:25;1.10;86.30
52481;DHT22;38393;52.404;13.532;2023-04-03T00:22:52;1.10;85.70
52481;DHT22;38393;52.404;13.532;2023-04-03T00:25:17;1.20;85.70
52481;DHT22;38393;52.404;13.532;2023-04-03T00:27:43;1.10;85.90
52481;DHT22;38393;52.404;13.532;2023-04-03T00:30:11;1.10;86.30
52481;DHT22;38393;52.404;13.532;2023-04-03T00:32:38;1.10;86.40
52481;DHT22;38393;52.404;13.532;2023-04-03T00:35:03;1.00;86.50
52481;DHT22;38393;52.404;13.532;2023-04-03T00:37:29;1.00;86.40
52481;DHT22;38393;52.404;13.532;2023-04-03T00:39:54;1.10;86.50
52481;DHT22;38393;52.404;13.532;2023-04-03T00:42:20;0.90;87.00
52481;DHT22;38393;52.404;13.532;2023-04-03T00:47:14;0.90;87.00
52481;DHT22;38393;52.404;13.532;2023-04-03T00:49:42;0.90;86.60
52481;DHT22;38393;52.404;13.532;2023-04-03T00:52:10;0.90;86.90
52481;DHT22;38393;52.404;13.532;2023-04-03T00:54:38;0.80;87.40
52481;DHT22;38393;52.404;13.532;2023-04-03T00:57:05;0.90;87.10
52481;DHT22;38393;52.404;13.532;2023-04-03T00:59:34;0.70;86.50
52481;DHT22;38393;52.404;13.532;2023-04-03T01:02:01;0.70;87.20
52481;DHT22;38393;52.404;13.532;2023-04-03T01:04:38;0.80;86.20
52481;DHT22;38393;52.404;13.532;2023-04-03T01:07:15;0.80;85.90
52481;DHT22;38393;52.404;13.532;2023-04-03T01:09:42;0.80;85.90
52481;DHT22;38393;52.404;13.532;2023-04-03T01:12:22;0.80;85.60
52481;DHT22;38393;52.404;13.532;2023-04-03T01:14:50;0.80;85.40
52481;DHT22;38393;52.404;13.532;2023-04-03T01:25:46;0.60;86.70
52481;DHT22;38393;52.404;13.532;2023-04-03T01:28:34;0.60;86.60
52481;DHT22;38393;52.404;13.532;2023-04-03T01:31:25;0.60;86.90
52481;DHT22;38393;52.404;13.532;2023-04-03T01:33:52;0.60;87.20
52481;DHT22;38393;52.404;13.532;2023-04-03T01:36:29;0.60;87.50
52481;DHT22;38393;52.404;13.532;2023-04-03T01:38:55;0.50;87.80
52481;DHT22;38393;52.404;13.532;2023-04-03T01:41:21;0.40;88.10
52481;DHT22;38393;52.404;13.532;2023-04-03T01:43:48;0.40;88.20
52481;DHT22;38393;52.404;13.532;2023-04-03T01:46:15;0.40;88.90
52481;DHT22;38393;52.404;13.532;2023-04-03T01:48:41;0.30;89.40
52481;DHT22;38393;52.404;13.532;2023-04-03T01:51:06;0.30;89.90
52481;DHT22;38393;52.404;13.532;2023-04-03T01:53:32;0.30;90.00
52481;DHT22;38393;52.404;13.532;2023-04-03T01:55:57;0.30;90.00
52481;DHT22;38393;52.404;13.532;2023-04-03T01:58:23;0.30;89.90
52481;DHT22;38393;52.404;13.532;2023-04-03T02:00:48;0.40;89.90
52481;DHT22;38393;52.404;13.532;2023-04-03T02:03:14;0.30;90.20
52481;DHT22;38393;52.404;13.532;2023-04-03T02:05:40;0.40;90.40
52481;DHT22;38393;52.404;13.532;2023-04-03T02:08:05;0.30;90.30
52481;DHT22;38393;52.404;13.532;2023-04-03T02:10:31;0.40;90.20
52481;DHT22;38393;52.404;13.532;2023-04-03T02:12:56;0.40;90.20
52481;DHT22;38393;52.404;13.532;2023-04-03T02:15:22;0.30;90.40
52481;DHT22;38393;52.404;13.532;2023-04-03T02:17:47;0.30;90.50
52481;DHT22;38393;52.404;13.532;2023-04-03T02:20:13;0.20;90.50
52481;DHT22;38393;52.404;13.532;2023-04-03T02:22:38;0.10;90.80
52481;DHT22;38393;52.404;13.532;2023-04-03T02:25:04;0.20;90.70
52481;DHT22;38393;52.404;13.532;2023-04-03T02:27:30;0.30;90.50
52481;DHT22;38393;52.404;13.532;2023-04-03T02:29:57;0.30;90.60
52481;DHT22;38393;52.404;13.532;2023-04-03T02:32:22;0.10;90.70
52481;DHT22;38393;52.404;13.532;2023-04-03T02:34:47;0.20;90.80
52481;DHT22;38393;52.404;13.532;2023-04-03T02:37:13;0.20;90.90
52481;DHT22;38393;52.404;13.532;2023-04-03T02:39:38;0.20;90.90
52481;DHT22;38393;52.404;13.532;2023-04-03T02:42:04;0.10;90.90
52481;DHT22;38393;52.404;13.532;2023-04-03T02:44:29;0.30;90.80
52481;DHT22;38393;52.404;13.532;2023-04-03T02:46:55;0.20;90.90
52481;DHT22;38393;52.404;13.532;2023-04-03T02:49:20;0.20;90.80
52481;DHT22;38393;52.404;13.532;2023-04-03T02:51:46;0.30;90.80
52481;DHT22;38393;52.404;13.532;2023-04-03T02:54:12;0.20;90.90
52481;DHT22;38393;52.404;13.532;2023-04-03T02:56:38;0.20;90.90
52481;DHT22;38393;52.404;13.532;2023-04-03T02:59:04;0.20;90.90
52481;DHT22;38393;52.404;13.532;2023-04-03T03:01:30;0.20;90.90
52481;DHT22;38393;52.404;13.532;2023-04-03T03:04:00;0.30;90.80
52481;DHT22;38393;52.404;13.532;2023-04-03T03:06:26;0.30;90.90
52481;DHT22;38393;52.404;13.532;2023-04-03T03:08:52;0.20;91.00
52481;DHT22;38393;52.404;13.532;2023-04-03T03:11:18;0.30;91.00
52481;DHT22;38393;52.404;13.532;2023-04-03T03:13:43;0.20;91.00
52481;DHT22;38393;52.404;13.532;2023-04-03T03:16:09;0.10;91.10
52481;DHT22;38393;52.404;13.532;2023-04-03T03:18:35;0.30;91.10
52481;DHT22;38393;52.404;13.532;2023-04-03T03:21:02;0.20;91.00
52481;DHT22;38393;52.404;13.532;2023-04-03T03:23:29;0.20;91.20
52481;DHT22;38393;52.404;13.532;2023-04-03T03:26:01;0.20;91.30
52481;DHT22;38393;52.404;13.532;2023-04-03T03:28:28;0.20;91.40
52481;DHT22;38393;52.404;13.532;2023-04-03T03:30:53;0.20;91.40
52481;DHT22;38393;52.404;13.532;2023-04-03T03:33:19;0.10;91.40
52481;DHT22;38393;52.404;13.532;2023-04-03T03:35:45;0.20;91.50
52481;DHT22;38393;52.404;13.532;2023-04-03T03:38:10;0.20;91.40
52481;DHT22;38393;52.404;13.532;2023-04-03T03:40:36;0.20;91.50
52481;DHT22;38393;52.404;13.532;2023-04-03T03:43:01;0.10;91.50
52481;DHT22;38393;52.404;13.532;2023-04-03T03:45:27;0.10;91.70
52481;DHT22;38393;52.404;13.532;2023-04-03T03:47:52;0.10;91.80
52481;DHT22;38393;52.404;13.532;2023-04-03T03:50:18;0.00;91.90
52481;DHT22;38393;52.404;13.532;2023-04-03T03:52:43;-0.10;92.20
52481;DHT22;38393;52.404;13.532;2023-04-03T03:55:09;0.00;92.20
52481;DHT22;38393;52.404;13.532;2023-04-03T03:57:35;0.00;92.10
52481;DHT22;38393;52.404;13.532;2023-04-03T04:00:01;0.00;92.10
52481;DHT22;38393;52.404;13.532;2023-04-03T04:02:26;0.00;92.20
52481;DHT22;38393;52.404;13.532;2023-04-03T04:04:52;0.00;92.30
52481;DHT22;38393;52.404;13.532;2023-04-03T04:07:17;0.00;92.30
52481;DHT22;38393;52.404;13.532;2023-04-03T04:09:43;0.00;92.30
52481;DHT22;38393;52.404;13.532;2023-04-03T04:12:08;0.00;92.20
52481;DHT22;38393;52.404;13.532;2023-04-03T04:14:33;0.00;92.30
52481;DHT22;38393;52.404;13.532;2023-04-03T04:16:59;0.00;92.30
52481;DHT22;38393;52.404;13.532;2023-04-03T04:19:25;0.00;92.40
52481;DHT22;38393;52.404;13.532;2023-04-03T04:21:50;0.00;92.50
52481;DHT22;38393;52.404;13.532;2023-04-03T04:24:16;0.00;92.40
52481;DHT22;38393;52.404;13.532;2023-04-03T04:26:41;0.00;92.40
52481;DHT22;38393;52.404;13.532;2023-04-03T04:29:09;0.00;92.30
52481;DHT22;38393;52.404;13.532;2023-04-03T04:31:35;0.10;92.20
52481;DHT22;38393;52.404;13.532;2023-04-03T04:34:00;0.00;92.30
52481;DHT22;38393;52.404;13.532;2023-04-03T04:36:26;0.00;92.40
52481;DHT22;38393;52.404;13.532;2023-04-03T04:38:51;0.00;92.30
52481;DHT22;38393;52.404;13.532;2023-04-03T04:41:19;0.00;92.50
52481;DHT22;38393;52.404;13.532;2023-04-03T04:43:46;0.00;92.30
52481;DHT22;38393;52.404;13.532;2023-04-03T04:46:11;0.00;92.50
52481;DHT22;38393;52.404;13.532;2023-04-03T04:48:37;0.10;92.30
52481;DHT22;38393;52.404;13.532;2023-04-03T04:51:03;0.00;92.30
52481;DHT22;38393;52.404;13.532;2023-04-03T04:53:29;0.00;92.30
52481;DHT22;38393;52.404;13.532;2023-04-03T04:55:55;0.00;92.40
52481;DHT22;38393;52.404;13.532;2023-04-03T04:58:20;0.00;92.40
52481;DHT22;38393;52.404;13.532;2023-04-03T05:00:46;0.00;92.30
52481;DHT22;38393;52.404;13.532;2023-04-03T05:03:12;0.10;92.30
52481;DHT22;38393;52.404;13.532;2023-04-03T05:05:37;0.00;92.20
52481;DHT22;38393;52.404;13.532;2023-04-03T05:08:03;0.20;92.10
52481;DHT22;38393;52.404;13.532;2023-04-03T05:10:30;0.20;92.00
52481;DHT22;38393;52.404;13.532;2023-04-03T05:12:55;0.30;91.90
52481;DHT22;38393;52.404;13.532;2023-04-03T05:15:21;0.40;91.60
52481;DHT22;38393;52.404;13.532;2023-04-03T05:17:46;0.40;91.60
52481;DHT22;38393;52.404;13.532;2023-04-03T05:20:12;0.50;91.40
52481;DHT22;38393;52.404;13.532;2023-04-03T05:22:38;0.40;91.20
52481;DHT22;38393;52.404;13.532;2023-04-03T05:25:04;0.60;90.90
52481;DHT22;38393;52.404;13.532;2023-04-03T05:27:29;0.60;90.90
52481;DHT22;38393;52.404;13.532;2023-04-03T05:29:55;0.60;91.00
52481;DHT22;38393;52.404;13.532;2023-04-03T05:32:22;0.70;90.70
52481;DHT22;38393;52.404;13.532;2023-04-03T05:34:47;0.90;90.20
52481;DHT22;38393;52.404;13.532;2023-04-03T05:37:13;0.90;90.10
52481;DHT22;38393;52.404;13.532;2023-04-03T05:39:38;0.90;90.20
52481;DHT22;38393;52.404;13.532;2023-04-03T05:42:06;1.00;89.80
52481;DHT22;38393;52.404;13.532;2023-04-03T05:44:32;1.00;89.80
52481;DHT22;38393;52.404;13.532;2023-04-03T05:46:57;1.00;89.70
52481;DHT22;38393;52.404;13.532;2023-04-03T05:49:23;1.10;90.00
52481;DHT22;38393;52.404;13.532;2023-04-03T05:51:48;1.20;90.10
52481;DHT22;38393;52.404;13.532;2023-04-03T05:54:25;1.20;89.60
52481;DHT22;38393;52.404;13.532;2023-04-03T05:56:51;1.20;88.50
52481;DHT22;38393;52.404;13.532;2023-04-03T05:59:18;1.30;88.00
52481;DHT22;38393;52.404;13.532;2023-04-03T06:01:43;1.40;87.70
52481;DHT22;38393;52.404;13.532;2023-04-03T06:04:09;1.50;87.50
52481;DHT22;38393;52.404;13.532;2023-04-03T06:06:50;1.50;87.10
52481;DHT22;38393;52.404;13.532;2023-04-03T06:09:17;1.60;87.10
52481;DHT22;38393;52.404;13.532;2023-04-03T06:11:42;1.70;87.20
52481;DHT22;38393;52.404;13.532;2023-04-03T06:14:08;1.80;86.40
52481;DHT22;38393;52.404;13.532;2023-04-03T06:16:34;1.90;85.00
52481;DHT22;38393;52.404;13.532;2023-04-03T06:19:00;2.00;84.50
52481;DHT22;38393;52.404;13.532;2023-04-03T06:21:26;2.10;84.40
52481;DHT22;38393;52.404;13.532;2023-04-03T06:23:51;2.00;83.50
52481;DHT22;38393;52.404;13.532;2023-04-03T06:26:17;2.20;83.50
52481;DHT22;38393;52.404;13.532;2023-04-03T06:28:42;2.30;82.60
52481;DHT22;38393;52.404;13.532;2023-04-03T06:31:08;2.30;82.70
52481;DHT22;38393;52.404;13.532;2023-04-03T06:33:34;2.30;81.60
52481;DHT22;38393;52.404;13.532;2023-04-03T06:36:00;2.40;81.00
52481;DHT22;38393;52.404;13.532;2023-04-03T06:38:28;2.40;80.20
52481;DHT22;38393;52.404;13.532;2023-04-03T06:40:53;2.50;80.10
52481;DHT22;38393;52.404;13.532;2023-04-03T06:43:19;2.60;80.50
52481;DHT22;38393;52.404;13.532;2023-04-03T06:45:45;2.60;79.10
52481;DHT22;38393;52.404;13.532;2023-04-03T06:48:12;2.70;80.80
52481;DHT22;38393;52.404;13.532;2023-04-03T06:50:37;2.80;77.10
52481;DHT22;38393;52.404;13.532;2023-04-03T06:53:02;2.80;77.30
52481;DHT22;38393;52.404;13.532;2023-04-03T06:55:28;2.90;76.10
52481;DHT22;38393;52.404;13.532;2023-04-03T06:57:54;3.00;76.30
52481;DHT22;38393;52.404;13.532;2023-04-03T07:00:20;3.00;74.90
52481;DHT22;38393;52.404;13.532;2023-04-03T07:02:45;3.10;71.70
52481;DHT22;38393;52.404;13.532;2023-04-03T07:05:11;3.10;70.00
52481;DHT22;38393;52.404;13.532;2023-04-03T07:07:37;3.10;70.70
52481;DHT22;38393;52.404;13.532;2023-04-03T07:10:03;3.20;70.50
52481;DHT22;38393;52.404;13.532;2023-04-03T07:12:29;3.20;68.90
52481;DHT22;38393;52.404;13.532;2023-04-03T07:14:54;3.30;69.80
52481;DHT22;38393;52.404;13.532;2023-04-03T07:17:20;3.50;68.40
52481;DHT22;38393;52.404;13.532;2023-04-03T07:19:45;3.30;67.00
52481;DHT22;38393;52.404;13.532;2023-04-03T07:22:11;3.40;70.40
52481;DHT22;38393;52.404;13.532;2023-04-03T07:24:37;3.30;70.20
52481;DHT22;38393;52.404;13.532;2023-04-03T07:27:02;3.20;69.30
52481;DHT22;38393;52.404;13.532;2023-04-03T07:29:28;3.00;68.00
52481;DHT22;38393;52.404;13.532;2023-04-03T07:31:53;3.40;68.80
52481;DHT22;38393;52.404;13.532;2023-04-03T07:34:20;3.40;67.00
52481;DHT22;38393;52.404;13.532;2023-04-03T07:36:46;3.30;67.40
52481;DHT22;38393;52.404;13.532;2023-04-03T07:39:11;3.20;68.10
52481;DHT22;38393;52.404;13.532;2023-04-03T07:41:36;3.40;67.10
52481;DHT22;38393;52.404;13.532;2023-04-03T07:44:02;3.40;67.90
52481;DHT22;38393;52.404;13.532;2023-04-03T07:46:28;3.50;67.20
52481;DHT22;38393;52.404;13.532;2023-04-03T07:48:53;3.80;67.30
52481;DHT22;38393;52.404;13.532;2023-04-03T07:51:19;4.10;66.70
52481;DHT22;38393;52.404;13.532;2023-04-03T07:53:45;4.40;63.80
52481;DHT22;38393;52.404;13.532;2023-04-03T07:56:11;4.30;63.10
52481;DHT22;38393;52.404;13.532;2023-04-03T07:58:36;4.60;64.80
52481;DHT22;38393;52.404;13.532;2023-04-03T08:01:02;4.90;64.40
52481;DHT22;38393;52.404;13.532;2023-04-03T08:03:28;5.00;61.20
52481;DHT22;38393;52.404;13.532;2023-04-03T08:05:54;5.00;60.80
52481;DHT22;38393;52.404;13.532;2023-04-03T08:08:21;4.80;58.80
52481;DHT22;38393;52.404;13.532;2023-04-03T08:10:52;4.70;59.00
52481;DHT22;38393;52.404;13.532;2023-04-03T08:13:19;4.70;58.10
52481;DHT22;38393;52.404;13.532;2023-04-03T08:15:45;4.70;58.30
52481;DHT22;38393;52.404;13.532;2023-04-03T08:18:11;4.30;57.70
52481;DHT22;38393;52.404;13.532;2023-04-03T08:20:38;4.10;58.60
52481;DHT22;38393;52.404;13.532;2023-04-03T08:23:04;4.00;59.40
52481;DHT22;38393;52.404;13.532;2023-04-03T08:25:29;4.20;59.20
52481;DHT22;38393;52.404;13.532;2023-04-03T08:27:55;4.30;58.60
52481;DHT22;38393;52.404;13.532;2023-04-03T08:30:20;4.20;59.10
52481;DHT22;38393;52.404;13.532;2023-04-03T08:32:47;4.10;60.00
52481;DHT22;38393;52.404;13.532;2023-04-03T08:35:12;4.40;60.30
52481;DHT22;38393;52.404;13.532;2023-04-03T08:37:38;4.40;57.70
52481;DHT22;38393;52.404;13.532;2023-04-03T08:40:05;4.30;58.40
52481;DHT22;38393;52.404;13.532;2023-04-03T08:42:36;4.50;58.50
52481;DHT22;38393;52.404;13.532;2023-04-03T08:45:18;4.50;57.80
52481;DHT22;38393;52.404;13.532;2023-04-03T08:47:55;4.50;57.30
52481;DHT22;38393;52.404;13.532;2023-04-03T08:50:30;4.40;59.60
52481;DHT22;38393;52.404;13.532;2023-04-03T08:52:58;4.20;56.90
52481;DHT22;38393;52.404;13.532;2023-04-03T08:55:43;4.40;57.60
52481;DHT22;38393;52.404;13.532;2023-04-03T08:58:16;4.60;58.30
52481;DHT22;38393;52.404;13.532;2023-04-03T09:00:50;4.50;56.10
52481;DHT22;38393;52.404;13.532;2023-04-03T09:03:19;4.30;56.90
52481;DHT22;38393;52.404;13.532;2023-04-03T09:05:53;4.10;57.70
52481;DHT22;38393;52.404;13.532;2023-04-03T09:08:31;4.20;57.00
52481;DHT22;38393;52.404;13.532;2023-04-03T09:11:16;4.50;56.60
52481;DHT22;38393;52.404;13.532;2023-04-03T09:13:59;4.90;55.20
52481;DHT22;38393;52.404;13.532;2023-04-03T09:16:52;5.20;56.00
52481;DHT22;38393;52.404;13.532;2023-04-03T09:19:22;6.00;55.50
52481;DHT22;38393;52.404;13.532;2023-04-03T09:21:50;6.40;51.60
52481;DHT22;38393;52.404;13.532;2023-04-03T09:24:17;6.70;50.70
52481;DHT22;38393;52.404;13.532;2023-04-03T09:26:48;6.30;51.00
52481;DHT22;38393;52.404;13.532;2023-04-03T09:29:19;6.30;49.90
52481;DHT22;38393;52.404;13.532;2023-04-03T09:31:48;6.40;51.20
52481;DHT22;38393;52.404;13.532;2023-04-03T09:34:20;6.10;52.00
52481;DHT22;38393;52.404;13.532;2023-04-03T09:36:49;5.60;49.80
52481;DHT22;38393;52.404;13.532;2023-04-03T09:39:25;5.60;52.10
52481;DHT22;38393;52.404;13.532;2023-04-03T09:42:19;5.50;51.00
52481;DHT22;38393;52.404;13.532;2023-04-03T09:45:03;5.20;50.90
52481;DHT22;38393;52.404;13.532;2023-04-03T09:47:36;5.20;49.90
52481;DHT22;38393;52.404;13.532;2023-04-03T09:52:44;5.30;50.30
52481;DHT22;38393;52.404;13.532;2023-04-03T09:55:22;5.70;52.10
52481;DHT22;38393;52.404;13.532;2023-04-03T09:57:53;6.30;51.30
52481;DHT22;38393;52.404;13.532;2023-04-03T10:00:24;6.80;50.60
52481;DHT22;38393;52.404;13.532;2023-04-03T10:02:54;6.20;48.50
52481;DHT22;38393;52.404;13.532;2023-04-03T10:05:41;5.90;51.50
52481;DHT22;38393;52.404;13.532;2023-04-03T10:10:40;5.70;51.10
52481;DHT22;38393;52.404;13.532;2023-04-03T10:13:12;5.70;51.10
52481;DHT22;38393;52.404;13.532;2023-04-03T10:15:51;5.80;50.90
52481;DHT22;38393;52.404;13.532;2023-04-03T10:18:55;6.10;51.40
52481;DHT22;38393;52.404;13.532;2023-04-03T10:21:39;6.30;50.20
52481;DHT22;38393;52.404;13.532;2023-04-03T10:24:31;6.50;52.60
52481;DHT22;38393;52.404;13.532;2023-04-03T10:27:12;6.20;51.60
52481;DHT22;38393;52.404;13.532;2023-04-03T10:30:01;6.10;51.50
52481;DHT22;38393;52.404;13.532;2023-04-03T10:32:51;6.00;51.30
52481;DHT22;38393;52.404;13.532;2023-04-03T10:35:44;5.80;51.60
52481;DHT22;38393;52.404;13.532;2023-04-03T10:38:20;6.10;50.20
52481;DHT22;38393;52.404;13.532;2023-04-03T10:41:07;6.10;50.60
52481;DHT22;38393;52.404;13.532;2023-04-03T10:46:48;6.40;49.70
52481;DHT22;38393;52.404;13.532;2023-04-03T10:52:37;6.40;49.80
52481;DHT22;38393;52.404;13.532;2023-04-03T10:57:40;6.00;52.90
52481;DHT22;38393;52.404;13.532;2023-04-03T11:00:21;5.70;52.70
52481;DHT22;38393;52.404;13.532;2023-04-03T11:02:56;6.00;51.90
52481;DHT22;38393;52.404;13.532;2023-04-03T11:05:36;6.30;52.60
52481;DHT22;38393;52.404;13.532;2023-04-03T11:08:11;6.70;51.20
52481;DHT22;38393;52.404;13.532;2023-04-03T11:10:46;6.60;49.90
52481;DHT22;38393;52.404;13.532;2023-04-03T11:13:27;6.40;50.70
52481;DHT22;38393;52.404;13.532;2023-04-03T11:15:57;5.90;50.90
52481;DHT22;38393;52.404;13.532;2023-04-03T11:18:31;5.80;52.20
52481;DHT22;38393;52.404;13.532;2023-04-03T11:21:09;5.60;52.60
52481;DHT22;38393;52.404;13.532;2023-04-03T11:23:39;5.70;53.90
52481;DHT22;38393;52.404;13.532;2023-04-03T11:26:14;5.70;53.00
52481;DHT22;38393;52.404;13.532;2023-04-03T11:28:41;5.60;53.60
52481;DHT22;38393;52.404;13.532;2023-04-03T11:31:41;5.40;54.50
52481;DHT22;38393;52.404;13.532;2023-04-03T11:36:56;6.20;54.20
52481;DHT22;38393;52.404;13.532;2023-04-03T11:39:26;6.30;53.70
52481;DHT22;38393;52.404;13.532;2023-04-03T11:41:53;6.40;54.60
52481;DHT22;38393;52.404;13.532;2023-04-03T11:44:48;6.50;53.60
52481;DHT22;38393;52.404;13.532;2023-04-03T11:47:44;6.60;54.00
52481;DHT22;38393;52.404;13.532;2023-04-03T11:50:31;6.70;54.10
52481;DHT22;38393;52.404;13.532;2023-04-03T11:53:02;6.60;53.10
52481;DHT22;38393;52.404;13.532;2023-04-03T12:03:30;6.80;51.10
52481;DHT22;38393;52.404;13.532;2023-04-03T12:06:41;6.70;48.90
52481;DHT22;38393;52.404;13.532;2023-04-03T12:08:53;6.70;49.20
52481;DHT22;38393;52.404;13.532;2023-04-03T12:11:30;7.00;50.90
52481;DHT22;38393;52.404;13.532;2023-04-03T12:32:06;6.10;53.90
52481;DHT22;38393;52.404;13.532;2023-04-03T12:37:16;6.00;53.90
52481;DHT22;38393;52.404;13.532;2023-04-03T12:42:32;6.00;53.20
52481;DHT22;38393;52.404;13.532;2023-04-03T12:45:02;6.40;53.80
52481;DHT22;38393;52.404;13.532;2023-04-03T12:47:34;6.70;51.40
52481;DHT22;38393;52.404;13.532;2023-04-03T12:50:03;6.70;50.30
52481;DHT22;38393;52.404;13.532;2023-04-03T12:52:33;6.70;49.70
52481;DHT22;38393;52.404;13.532;2023-04-03T12:55:01;6.60;50.10
52481;DHT22;38393;52.404;13.532;2023-04-03T12:57:30;6.50;50.10
52481;DHT22;38393;52.404;13.532;2023-04-03T12:59:58;6.20;50.90
52481;DHT22;38393;52.404;13.532;2023-04-03T13:02:32;6.50;51.30
52481;DHT22;38393;52.404;13.532;2023-04-03T13:05:06;6.30;51.40
52481;DHT22;38393;52.404;13.532;2023-04-03T13:07:34;6.20;51.50
52481;DHT22;38393;52.404;13.532;2023-04-03T13:12:49;6.90;52.70
52481;DHT22;38393;52.404;13.532;2023-04-03T13:15:17;6.60;50.90
52481;DHT22;38393;52.404;13.532;2023-04-03T13:17:43;6.50;51.70
52481;DHT22;38393;52.404;13.532;2023-04-03T13:20:12;6.60;50.50
52481;DHT22;38393;52.404;13.532;2023-04-03T13:22:51;6.40;50.60
52481;DHT22;38393;52.404;13.532;2023-04-03T13:25:18;6.70;51.60
52481;DHT22;38393;52.404;13.532;2023-04-03T13:27:45;7.10;51.40
52481;DHT22;38393;52.404;13.532;2023-04-03T13:30:29;6.90;50.00
52481;DHT22;38393;52.404;13.532;2023-04-03T13:32:57;7.20;50.00
52481;DHT22;38393;52.404;13.532;2023-04-03T13:35:27;7.10;49.90
52481;DHT22;38393;52.404;13.532;2023-04-03T13:37:58;7.30;49.90
52481;DHT22;38393;52.404;13.532;2023-04-03T13:40:24;7.30;48.70
52481;DHT22;38393;52.404;13.532;2023-04-03T13:43:13;7.20;48.80
52481;DHT22;38393;52.404;13.532;2023-04-03T13:45:54;7.10;50.00
52481;DHT22;38393;52.404;13.532;2023-04-03T13:48:20;6.50;50.30
52481;DHT22;38393;52.404;13.532;2023-04-03T13:50:58;6.20;51.90
52481;DHT22;38393;52.404;13.532;2023-04-03T13:53:25;6.00;53.00
52481;DHT22;38393;52.404;13.532;2023-04-03T13:58:30;5.90;54.00
52481;DHT22;38393;52.404;13.532;2023-04-03T14:01:11;5.90;54.50
52481;DHT22;38393;52.404;13.532;2023-04-03T14:03:45;6.00;54.40
52481;DHT22;38393;52.404;13.532;2023-04-03T14:06:16;6.10;54.00
52481;DHT22;38393;52.404;13.532;2023-04-03T14:08:42;6.40;53.90
52481;DHT22;38393;52.404;13.532;2023-04-03T14:11:14;6.60;53.50
52481;DHT22;38393;52.404;13.532;2023-04-03T14:13:40;6.60;53.70
52481;DHT22;38393;52.404;13.532;2023-04-03T14:16:06;6.90;53.10
52481;DHT22;38393;52.404;13.532;2023-04-03T14:18:31;7.10;53.60
52481;DHT22;38393;52.404;13.532;2023-04-03T14:20:57;7.30;52.90
52481;DHT22;38393;52.404;13.532;2023-04-03T14:23:22;7.10;52.80
52481;DHT22;38393;52.404;13.532;2023-04-03T14:25:48;7.00;51.80
52481;DHT22;38393;52.404;13.532;2023-04-03T14:28:19;6.50;52.20
52481;DHT22;38393;52.404;13.532;2023-04-03T14:30:47;6.40;53.00
52481;DHT22;38393;52.404;13.532;2023-04-03T14:33:15;6.80;53.20
52481;DHT22;38393;52.404;13.532;2023-04-03T14:35:41;6.80;53.00
52481;DHT22;38393;52.404;13.532;2023-04-03T14:38:22;6.90;52.80
52481;DHT22;38393;52.404;13.532;2023-04-03T14:40:48;7.00;51.60
52481;DHT22;38393;52.404;13.532;2023-04-03T14:43:13;6.90;52.80
52481;DHT22;38393;52.404;13.532;2023-04-03T14:45:40;6.90;53.60
52481;DHT22;38393;52.404;13.532;2023-04-03T14:48:12;6.90;52.60
52481;DHT22;38393;52.404;13.532;2023-04-03T14:50:41;6.80;53.90
52481;DHT22;38393;52.404;13.532;2023-04-03T14:53:07;6.80;53.50
52481;DHT22;38393;52.404;13.532;2023-04-03T14:55:32;6.60;53.00
52481;DHT22;38393;52.404;13.532;2023-04-03T14:57:58;6.30;53.30
52481;DHT22;38393;52.404;13.532;2023-04-03T15:00:24;6.00;55.10
52481;DHT22;38393;52.404;13.532;2023-04-03T15:02:49;5.90;56.10
52481;DHT22;38393;52.404;13.532;2023-04-03T15:05:15;5.60;57.20
52481;DHT22;38393;52.404;13.532;2023-04-03T15:07:49;5.70;57.60
52481;DHT22;38393;52.404;13.532;2023-04-03T15:10:24;5.70;58.00
52481;DHT22;38393;52.404;13.532;2023-04-03T15:12:50;5.80;58.50
52481;DHT22;38393;52.404;13.532;2023-04-03T15:15:18;5.80;58.60
52481;DHT22;38393;52.404;13.532;2023-04-03T15:17:45;5.80;58.30
52481;DHT22;38393;52.404;13.532;2023-04-03T15:20:18;5.70;58.60
52481;DHT22;38393;52.404;13.532;2023-04-03T15:22:45;5.60;59.60
52481;DHT22;38393;52.404;13.532;2023-04-03T15:25:11;5.70;59.20
52481;DHT22;38393;52.404;13.532;2023-04-03T15:27:37;5.70;59.90
52481;DHT22;38393;52.404;13.532;2023-04-03T15:30:05;5.70;60.40
52481;DHT22;38393;52.404;13.532;2023-04-03T15:32:33;5.50;60.40
52481;DHT22;38393;52.404;13.532;2023-04-03T15:34:59;5.50;61.00
52481;DHT22;38393;52.404;13.532;2023-04-03T15:37:25;5.40;59.10
52481;DHT22;38393;52.404;13.532;2023-04-03T15:39:51;5.30;59.40
52481;DHT22;38393;52.404;13.532;2023-04-03T15:42:16;5.20;60.20
52481;DHT22;38393;52.404;13.532;2023-04-03T15:44:42;5.30;59.40
52481;DHT22;38393;52.404;13.532;2023-04-03T15:47:07;5.30;59.20
52481;DHT22;38393;52.404;13.532;2023-04-03T15:49:33;5.30;59.60
52481;DHT22;38393;52.404;13.532;2023-04-03T15:51:59;5.10;59.20
52481;DHT22;38393;52.404;13.532;2023-04-03T15:54:25;5.30;59.60
52481;DHT22;38393;52.404;13.532;2023-04-03T15:56:51;5.40;59.60
52481;DHT22;38393;52.404;13.532;2023-04-03T15:59:16;5.40;59.50
52481;DHT22;38393;52.404;13.532;2023-04-03T16:01:42;5.30;58.40
52481;DHT22;38393;52.404;13.532;2023-04-03T16:04:08;5.10;58.90
52481;DHT22;38393;52.404;13.532;2023-04-03T16:06:36;5.30;59.10
52481;DHT22;38393;52.404;13.532;2023-04-03T16:09:02;5.30;59.50
52481;DHT22;38393;52.404;13.532;2023-04-03T16:11:28;5.30;59.80
52481;DHT22;38393;52.404;13.532;2023-04-03T16:13:54;5.20;60.10
52481;DHT22;38393;52.404;13.532;2023-04-03T16:16:20;5.20;60.30
52481;DHT22;38393;52.404;13.532;2023-04-03T16:18:46;5.30;61.00
52481;DHT22;38393;52.404;13.532;2023-04-03T16:21:12;5.40;60.60
52481;DHT22;38393;52.404;13.532;2023-04-03T16:23:39;5.50;60.00
52481;DHT22;38393;52.404;13.532;2023-04-03T16:26:05;5.80;60.00
52481;DHT22;38393;52.404;13.532;2023-04-03T16:28:30;5.80;58.50
52481;DHT22;38393;52.404;13.532;2023-04-03T16:30:56;5.90;57.70
52481;DHT22;38393;52.404;13.532;2023-04-03T16:33:22;6.00;58.10
52481;DHT22;38393;52.404;13.532;2023-04-03T16:35:50;5.90;58.20
52481;DHT22;38393;52.404;13.532;2023-04-03T16:38:15;5.90;57.60
52481;DHT22;38393;52.404;13.532;2023-04-03T16:40:41;5.70;58.30
52481;DHT22;38393;52.404;13.532;2023-04-03T16:43:07;5.70;58.40
52481;DHT22;38393;52.404;13.532;2023-04-03T16:45:32;5.60;59.20